Notice: Undefined index: station in /home3/dimtiris/public_html/webApp/metar/index.php on line 4

Metar

Weather conditions for all airports of the world. Just type the ICAO code of an airport.

LGAV 071650Z VRB01KT CAVOK 06/00 Q1027 NOSIG

STATION LGAV
OBSERVED Sun Feb 7, 09:50 MST
NOW Sun Feb 7, 10:04 MST
AGE 14 min ago
WIND varies at 1 mph
VISIBILITY greater than 7 miles
CONDITIONS
CLOUDS clear skies
TEMP 43°F (6°C)
DEWPT 32°F (0°C)
HUMIDITY 66%
BAROMETER 1027 hPa (30.33 in Hg)

Get weather info from other station:

Some ICAO codes to try: